Time;durP1;ratioP1;P1;durP2;ratioP2;P2;SDS_P1;SDS_P2;PMS_P1;PMS_P2;Temp;Humidity;BMP_temperature;BMP_pressure;BME280_temperature;BME280_humidity;BME280_pressure;Samples;Min_cycle;Max_cycle;Signal;HPM_P1;HPM_P2
2023/06/26 00:00:08;;;;;;;6.75;5.57;;;20.40;86.90;;;;;;5091434;28;20586;-57
2023/06/26 00:02:35;;;;;;;7.47;5.65;;;20.40;87.00;;;;;;5091246;28;20443;-59
2023/06/26 00:05:03;;;;;;;6.00;5.40;;;20.40;87.50;;;;;;5091279;28;20208;-56
2023/06/26 00:07:30;;;;;;;6.28;5.60;;;20.30;88.00;;;;;;5090926;28;20235;-57
2023/06/26 00:09:57;;;;;;;5.65;4.85;;;20.40;88.00;;;;;;5091111;28;20291;-56
2023/06/26 00:12:25;;;;;;;5.75;5.15;;;20.40;88.10;;;;;;5090820;28;20240;-59
2023/06/26 00:14:51;;;;;;;7.35;5.68;;;20.40;88.60;;;;;;5091066;28;20232;-55
2023/06/26 00:17:18;;;;;;;7.50;5.47;;;20.40;88.60;;;;;;5090956;28;20211;-57
2023/06/26 00:19:45;;;;;;;6.78;5.78;;;20.40;89.20;;;;;;5091012;28;20208;-56
2023/06/26 00:22:12;;;;;;;7.80;5.40;;;20.40;89.60;;;;;;5090872;28;20725;-57
2023/06/26 00:24:38;;;;;;;6.70;5.93;;;20.40;90.00;;;;;;5091241;28;20301;-57
2023/06/26 00:27:05;;;;;;;7.47;6.03;;;20.40;90.10;;;;;;5094602;28;20204;-56
2023/06/26 00:29:33;;;;;;;6.57;5.40;;;20.30;90.30;;;;;;5094837;28;20667;-56
2023/06/26 00:32:00;;;;;;;8.60;5.78;;;20.30;90.30;;;;;;5094807;28;20228;-57
2023/06/26 00:34:27;;;;;;;6.78;5.53;;;20.20;90.60;;;;;;5094626;28;20675;-56
2023/06/26 00:36:53;;;;;;;8.90;5.68;;;20.20;90.70;;;;;;5094460;28;20208;-56
2023/06/26 00:39:20;;;;;;;6.22;5.47;;;20.20;90.90;;;;;;5094642;28;20680;-57
2023/06/26 00:41:47;;;;;;;6.43;5.72;;;20.20;90.90;;;;;;5094654;28;20220;-56
2023/06/26 00:44:14;;;;;;;5.88;5.30;;;20.10;91.30;;;;;;5094742;28;20253;-57
2023/06/26 00:46:43;;;;;;;6.20;5.50;;;20.00;91.60;;;;;;5094300;28;20215;-58
2023/06/26 00:49:10;;;;;;;5.65;5.05;;;20.00;91.90;;;;;;5094371;28;20200;-57
2023/06/26 00:51:36;;;;;;;6.80;5.85;;;19.90;92.10;;;;;;5094015;28;20224;-58
2023/06/26 00:54:03;;;;;;;6.82;5.85;;;19.90;92.30;;;;;;5094569;28;20668;-56
2023/06/26 00:56:33;;;;;;;8.25;5.88;;;19.80;92.50;;;;;;5094162;28;20225;-56
2023/06/26 00:58:59;;;;;;;5.75;5.22;;;19.80;92.80;;;;;;5094381;28;20208;-56
2023/06/26 01:01:26;;;;;;;6.88;6.03;;;19.70;93.10;;;;;;5094370;28;20232;-56
2023/06/26 01:03:54;;;;;;;6.13;5.53;;;19.60;93.50;;;;;;5094798;28;20265;-57
2023/06/26 01:06:24;;;;;;;6.57;5.85;;;19.50;93.90;;;;;;5094339;28;20291;-58
2023/06/26 01:08:53;;;;;;;6.15;5.50;;;19.50;94.50;;;;;;5094525;28;20208;-57
2023/06/26 01:11:20;;;;;;;6.53;5.78;;;19.30;94.80;;;;;;5113117;22;20606;-60
2023/06/26 01:13:47;;;;;;;7.35;5.20;;;19.30;95.20;;;;;;5073056;28;20228;-60
2023/06/26 01:16:15;;;;;;;6.88;5.70;;;19.30;95.50;;;;;;5072936;28;20270;-61
2023/06/26 01:18:43;;;;;;;6.03;5.22;;;19.20;95.90;;;;;;5073283;28;20212;-60
2023/06/26 01:21:13;;;;;;;5.88;5.28;;;19.20;96.20;;;;;;5073574;28;20229;-60
2023/06/26 01:23:59;;;;;;;6.68;5.80;;;19.20;96.40;;;;;;5073299;28;20205;-60
2023/06/26 01:26:30;;;;;;;6.35;5.47;;;19.10;96.60;;;;;;5072913;28;20204;-61
2023/06/26 01:28:59;;;;;;;6.57;5.65;;;19.20;96.90;;;;;;5072900;28;20205;-60
2023/06/26 01:31:27;;;;;;;7.47;5.85;;;19.10;96.90;;;;;;5072852;28;20221;-60
2023/06/26 01:33:54;;;;;;;7.22;5.80;;;19.10;96.90;;;;;;5072753;28;20204;-59
2023/06/26 01:36:21;;;;;;;8.38;5.97;;;19.10;97.10;;;;;;5071980;28;20225;-60
2023/06/26 01:38:47;;;;;;;5.90;5.30;;;19.10;97.40;;;;;;5072403;28;20278;-60
2023/06/26 01:41:14;;;;;;;6.53;5.55;;;19.10;97.50;;;;;;5072929;28;20232;-60
2023/06/26 01:44:01;;;;;;;6.00;5.40;;;19.10;97.60;;;;;;5072677;28;20208;-60
2023/06/26 01:46:41;;;;;;;5.70;5.18;;;19.00;97.80;;;;;;5072712;28;20197;-60
2023/06/26 01:49:14;;;;;;;6.68;5.97;;;19.00;98.20;;;;;;5072670;28;20212;-60
2023/06/26 01:51:45;;;;;;;8.93;5.40;;;19.00;98.60;;;;;;5072595;28;20221;-60
2023/06/26 01:54:17;;;;;;;7.15;5.40;;;18.90;98.90;;;;;;5072696;28;20244;-60
2023/06/26 01:56:46;;;;;;;6.22;5.63;;;18.90;99.00;;;;;;5072221;28;20677;-60
2023/06/26 01:59:15;;;;;;;7.40;5.30;;;18.90;99.20;;;;;;5072802;28;20211;-60
2023/06/26 02:01:42;;;;;;;6.45;5.85;;;18.80;99.40;;;;;;5072317;28;20304;-60
2023/06/26 02:04:09;;;;;;;6.38;5.45;;;18.90;99.50;;;;;;5072305;28;20665;-60
2023/06/26 02:06:35;;;;;;;6.30;5.70;;;18.90;99.50;;;;;;5072161;28;20205;-60
2023/06/26 02:09:02;;;;;;;8.10;5.68;;;18.90;99.50;;;;;;5072431;28;20207;-59
2023/06/26 02:11:30;;;;;;;6.10;5.50;;;18.90;99.60;;;;;;5072197;28;20323;-61
2023/06/26 02:13:57;;;;;;;6.25;5.65;;;18.90;99.70;;;;;;5072163;28;20208;-60
2023/06/26 02:16:25;;;;;;;7.97;5.90;;;18.90;99.90;;;;;;5071488;28;20705;-62
2023/06/26 02:18:52;;;;;;;6.75;5.50;;;18.80;99.90;;;;;;5072045;28;20212;-61
2023/06/26 02:21:18;;;;;;;6.25;5.65;;;18.80;99.90;;;;;;5071701;28;20232;-61
2023/06/26 02:23:45;;;;;;;6.03;5.32;;;18.80;99.90;;;;;;5072297;28;20327;-61
2023/06/26 02:26:12;;;;;;;6.85;5.78;;;18.80;99.90;;;;;;5072165;28;20201;-61
2023/06/26 02:28:38;;;;;;;6.03;5.43;;;18.80;99.90;;;;;;5072665;28;20211;-60
2023/06/26 02:31:05;;;;;;;8.25;5.70;;;18.80;99.90;;;;;;5072341;28;20208;-60
2023/06/26 02:33:33;;;;;;;8.25;6.10;;;18.80;99.90;;;;;;5072351;28;20205;-61
2023/06/26 02:36:00;;;;;;;6.22;5.40;;;18.60;99.90;;;;;;5072007;28;20236;-62
2023/06/26 02:38:27;;;;;;;5.95;5.25;;;18.50;99.90;;;;;;5072258;28;20213;-60
2023/06/26 02:40:54;;;;;;;6.10;5.47;;;18.50;99.90;;;;;;5072025;28;20205;-60
2023/06/26 02:43:20;;;;;;;6.25;5.50;;;18.40;99.90;;;;;;5071871;28;20237;-60
2023/06/26 02:45:47;;;;;;;6.78;5.80;;;18.40;99.90;;;;;;5071152;28;20250;-60
2023/06/26 02:48:14;;;;;;;6.20;5.45;;;18.40;99.90;;;;;;5071223;28;20699;-60
2023/06/26 02:50:45;;;;;;;7.78;6.43;;;18.30;99.90;;;;;;5071776;28;20266;-60
2023/06/26 02:53:12;;;;;;;6.13;5.35;;;18.30;99.90;;;;;;5071631;28;20208;-59
2023/06/26 02:55:39;;;;;;;6.20;5.60;;;18.30;99.90;;;;;;5072111;28;20309;-60
2023/06/26 02:58:06;;;;;;;6.55;5.75;;;18.30;99.90;;;;;;5071175;28;20216;-60
2023/06/26 03:00:33;;;;;;;8.25;5.82;;;18.30;99.90;;;;;;5071345;28;20201;-61
2023/06/26 03:02:59;;;;;;;6.88;5.45;;;18.20;99.90;;;;;;5071471;28;20930;-61
2023/06/26 03:05:26;;;;;;;7.07;6.10;;;18.20;99.90;;;;;;5071194;28;20729;-60
2023/06/26 03:07:54;;;;;;;6.60;5.47;;;18.20;99.90;;;;;;5070862;28;20212;-61
2023/06/26 03:10:21;;;;;;;6.93;5.45;;;18.20;99.90;;;;;;5071302;28;20270;-60
2023/06/26 03:12:48;;;;;;;6.97;5.65;;;18.10;99.90;;;;;;5070688;28;20237;-60
2023/06/26 03:15:14;;;;;;;6.75;5.85;;;18.10;99.90;;;;;;5070695;28;20212;-60
2023/06/26 03:17:41;;;;;;;6.07;5.32;;;18.10;99.90;;;;;;5071142;28;20212;-60
2023/06/26 03:20:10;;;;;;;7.75;5.50;;;18.20;99.90;;;;;;5070935;28;20714;-60
2023/06/26 03:22:36;;;;;;;6.05;5.45;;;18.10;99.90;;;;;;5070955;28;20225;-60
2023/06/26 03:25:05;;;;;;;6.40;5.47;;;18.10;99.90;;;;;;5070793;28;20591;-61
2023/06/26 03:27:32;;;;;;;6.95;6.25;;;18.10;99.90;;;;;;5070442;28;20557;-60
2023/06/26 03:29:59;;;;;;;6.60;5.90;;;18.10;99.90;;;;;;5070776;28;20270;-59
2023/06/26 03:32:25;;;;;;;7.18;6.43;;;18.10;99.90;;;;;;5070798;28;20692;-59
2023/06/26 03:34:52;;;;;;;6.80;6.05;;;18.10;99.90;;;;;;5070807;28;20254;-60
2023/06/26 03:37:19;;;;;;;6.70;5.95;;;18.10;99.90;;;;;;5070584;28;20225;-60
2023/06/26 03:39:46;;;;;;;7.20;5.75;;;18.10;99.90;;;;;;5070709;28;20209;-61
2023/06/26 03:42:14;;;;;;;6.80;6.03;;;18.10;99.90;;;;;;5070563;28;20301;-63
2023/06/26 03:44:40;;;;;;;6.70;5.82;;;18.10;99.90;;;;;;5070791;28;20691;-63
2023/06/26 03:47:07;;;;;;;5.90;5.30;;;18.10;99.90;;;;;;5070675;28;20623;-62
2023/06/26 03:49:34;;;;;;;8.98;6.10;;;18.10;99.90;;;;;;5070799;28;20205;-63
2023/06/26 03:52:01;;;;;;;7.60;5.57;;;18.10;99.90;;;;;;5071019;28;20231;-63
2023/06/26 03:54:27;;;;;;;6.45;5.57;;;18.10;99.90;;;;;;5070910;28;20672;-62
2023/06/26 03:56:54;;;;;;;6.10;5.50;;;18.20;99.90;;;;;;5070684;28;20645;-62
2023/06/26 03:59:23;;;;;;;7.53;5.55;;;18.20;99.90;;;;;;5071014;28;20215;-62
2023/06/26 04:01:49;;;;;;;6.95;6.00;;;18.20;99.90;;;;;;5074550;28;20258;-62
2023/06/26 04:04:16;;;;;;;6.35;5.65;;;18.20;99.90;;;;;;5074727;28;20703;-62
2023/06/26 04:06:43;;;;;;;7.85;5.60;;;18.20;99.90;;;;;;5074501;28;20201;-62
2023/06/26 04:09:09;;;;;;;7.88;5.85;;;18.30;99.90;;;;;;5074578;28;20216;-62
2023/06/26 04:11:36;;;;;;;8.60;5.97;;;18.30;99.90;;;;;;5074583;28;20233;-62
2023/06/26 04:14:03;;;;;;;7.00;5.72;;;18.40;99.90;;;;;;5074964;28;20211;-61
2023/06/26 04:16:31;;;;;;;7.60;6.15;;;18.50;99.90;;;;;;5074696;28;20764;-63
2023/06/26 04:18:58;;;;;;;6.78;6.07;;;18.60;99.90;;;;;;5074754;28;20205;-62
2023/06/26 04:21:25;;;;;;;6.43;5.68;;;18.60;99.90;;;;;;5074412;28;20228;-62
2023/06/26 04:23:52;;;;;;;6.88;5.93;;;18.60;99.90;;;;;;5074340;28;20216;-63
2023/06/26 04:26:19;;;;;;;6.70;5.68;;;18.70;99.90;;;;;;5074394;28;20204;-62
2023/06/26 04:28:45;;;;;;;6.90;5.45;;;18.80;99.90;;;;;;5074765;28;20236;-63
2023/06/26 04:31:12;;;;;;;7.07;6.05;;;18.90;99.90;;;;;;5074061;28;20282;-62
2023/06/26 04:33:40;;;;;;;7.35;6.38;;;18.90;99.90;;;;;;5074458;28;20283;-62
2023/06/26 04:36:07;;;;;;;10.52;6.60;;;19.00;99.90;;;;;;5073841;28;20614;-61
2023/06/26 04:38:35;;;;;;;6.95;5.65;;;19.10;99.90;;;;;;5074577;28;20250;-62
2023/06/26 04:41:01;;;;;;;6.53;5.38;;;19.20;99.90;;;;;;5074058;28;20722;-62
2023/06/26 04:43:28;;;;;;;6.75;6.05;;;19.30;99.90;;;;;;5073959;28;20364;-62
2023/06/26 04:45:55;;;;;;;7.63;6.10;;;19.60;99.90;;;;;;5073619;28;20698;-61
2023/06/26 04:48:22;;;;;;;7.45;5.55;;;20.00;99.90;;;;;;5073667;28;20300;-62
2023/06/26 04:50:53;;;;;;;6.78;5.45;;;21.30;99.90;;;;;;5073665;28;20291;-61
2023/06/26 04:53:20;;;;;;;7.97;5.72;;;23.10;98.30;;;;;;5073460;28;20456;-62
2023/06/26 04:55:47;;;;;;;6.45;5.60;;;25.00;94.30;;;;;;5073526;28;20201;-61
2023/06/26 04:58:14;;;;;;;7.13;5.72;;;26.60;90.20;;;;;;5073433;28;20671;-61
2023/06/26 05:00:42;;;;;;;6.15;5.35;;;28.20;82.70;;;;;;5073469;28;20205;-62
2023/06/26 05:03:09;;;;;;;5.82;5.22;;;29.40;75.50;;;;;;5073052;28;20312;-61
2023/06/26 05:05:36;;;;;;;6.50;5.88;;;30.40;70.10;;;;;;5072980;28;20205;-61
2023/06/26 05:08:16;;;;;;;7.18;6.15;;;31.20;66.80;;;;;;5073286;28;20208;-61
2023/06/26 05:10:43;;;;;;;6.05;5.45;;;32.00;64.40;;;;;;5073474;28;20224;-61
2023/06/26 05:13:09;;;;;;;6.47;5.43;;;32.90;61.10;;;;;;5071798;28;20228;-62
2023/06/26 05:15:36;;;;;;;7.75;5.80;;;33.60;58.80;;;;;;5073159;28;20205;-62
2023/06/26 05:18:03;;;;;;;7.50;6.10;;;34.10;57.00;;;;;;5072704;28;20228;-61
2023/06/26 05:20:30;;;;;;;7.00;5.88;;;34.40;55.60;;;;;;5073254;28;20209;-62
2023/06/26 05:22:57;;;;;;;7.07;5.80;;;34.60;55.00;;;;;;5073172;28;20312;-61
2023/06/26 05:25:26;;;;;;;6.13;5.50;;;35.00;54.10;;;;;;5073372;28;20262;-62
2023/06/26 05:27:54;;;;;;;6.43;5.70;;;35.50;53.00;;;;;;5073101;28;20291;-62
2023/06/26 05:30:21;;;;;;;6.05;5.45;;;35.90;52.20;;;;;;5072797;28;20204;-61
2023/06/26 05:32:48;;;;;;;6.93;5.40;;;36.50;51.30;;;;;;5072768;28;20229;-61
2023/06/26 05:35:16;;;;;;;8.48;5.40;;;36.90;50.10;;;;;;5072904;28;20712;-62
2023/06/26 05:37:43;;;;;;;8.77;5.35;;;37.40;49.30;;;;;;5072877;28;20225;-62
2023/06/26 05:40:11;;;;;;;5.80;5.20;;;37.80;48.40;;;;;;5072994;28;20289;-62
2023/06/26 05:42:39;;;;;;;6.40;5.80;;;38.00;47.50;;;;;;5072721;28;20229;-62
2023/06/26 05:45:07;;;;;;;5.80;4.88;;;38.20;47.30;;;;;;5072616;28;20212;-62
2023/06/26 05:47:34;;;;;;;6.13;5.35;;;38.50;46.90;;;;;;5072363;28;20201;-62
2023/06/26 05:50:01;;;;;;;6.50;5.90;;;38.90;46.30;;;;;;5072641;28;20303;-61
2023/06/26 05:52:29;;;;;;;7.28;5.28;;;39.50;45.10;;;;;;5072479;28;20232;-62
2023/06/26 05:54:58;;;;;;;6.10;5.28;;;39.90;44.30;;;;;;5072561;28;20205;-63
2023/06/26 05:57:27;;;;;;;6.07;5.00;;;40.40;43.70;;;;;;5071873;28;20227;-62
2023/06/26 05:59:55;;;;;;;5.78;5.18;;;41.10;42.60;;;;;;5072351;28;20644;-63
2023/06/26 06:02:22;;;;;;;7.43;4.93;;;41.70;41.80;;;;;;5072298;28;20634;-63
2023/06/26 06:04:49;;;;;;;5.45;4.95;;;42.20;41.00;;;;;;5072076;28;20737;-62
2023/06/26 06:07:16;;;;;;;5.78;5.22;;;42.50;40.20;;;;;;5072042;28;20201;-62
2023/06/26 06:09:43;;;;;;;5.45;5.00;;;42.80;39.60;;;;;;5073225;28;20200;-62
2023/06/26 06:12:10;;;;;;;7.00;4.80;;;42.90;39.40;;;;;;5072333;28;20236;-62
2023/06/26 06:14:36;;;;;;;5.60;5.10;;;42.90;39.70;;;;;;5072455;28;20656;-62
2023/06/26 06:17:05;;;;;;;5.38;4.88;;;43.30;39.00;;;;;;5072021;28;20295;-62
2023/06/26 06:19:31;;;;;;;5.80;5.30;;;43.60;38.70;;;;;;5072360;28;20220;-63
2023/06/26 06:21:58;;;;;;;5.47;4.97;;;44.00;38.10;;;;;;5072066;28;20228;-63
2023/06/26 06:24:25;;;;;;;5.40;4.90;;;44.30;37.60;;;;;;5072001;28;20200;-60
2023/06/26 06:26:51;;;;;;;6.55;5.63;;;44.50;37.00;;;;;;5071578;28;20675;-64
2023/06/26 06:29:19;;;;;;;6.50;4.88;;;44.60;37.10;;;;;;5072122;28;20209;-63
2023/06/26 06:31:46;;;;;;;6.60;5.03;;;44.60;37.10;;;;;;5072239;28;20230;-60
2023/06/26 06:34:14;;;;;;;6.78;5.18;;;43.90;37.80;;;;;;5071924;28;20652;-60
2023/06/26 06:36:41;;;;;;;5.97;4.85;;;43.90;37.60;;;;;;5071587;28;20224;-61
2023/06/26 06:39:07;;;;;;;5.82;5.05;;;43.90;37.70;;;;;;5072107;28;20637;-62
2023/06/26 06:41:34;;;;;;;6.05;5.03;;;44.20;37.20;;;;;;5071482;28;20498;-62
2023/06/26 06:44:01;;;;;;;5.38;4.75;;;44.40;37.40;;;;;;5071481;28;20209;-62
2023/06/26 06:46:28;;;;;;;5.80;5.22;;;44.70;37.20;;;;;;5071398;28;20212;-62
2023/06/26 06:48:56;;;;;;;7.15;5.50;;;45.10;36.60;;;;;;5071979;28;20277;-60
2023/06/26 06:51:24;;;;;;;5.20;4.75;;;45.90;36.40;;;;;;5071805;28;20315;-62
2023/06/26 06:53:50;;;;;;;5.53;4.82;;;46.60;35.50;;;;;;5071512;28;20262;-61
2023/06/26 06:56:17;;;;;;;4.93;4.53;;;47.30;34.80;;;;;;5071500;28;20208;-61
2023/06/26 06:58:46;;;;;;;5.35;4.85;;;47.70;34.40;;;;;;5071723;28;20208;-61
2023/06/26 07:01:14;;;;;;;5.25;4.60;;;48.10;33.80;;;;;;5071573;28;20228;-61
2023/06/26 07:03:41;;;;;;;4.75;4.35;;;48.40;33.40;;;;;;5071729;28;20204;-62
2023/06/26 07:06:07;;;;;;;4.82;4.40;;;48.80;33.20;;;;;;5070982;28;20760;-61
2023/06/26 07:08:36;;;;;;;5.28;4.78;;;49.00;32.30;;;;;;5070871;28;20638;-62
2023/06/26 07:11:02;;;;;;;5.15;4.28;;;48.50;33.30;;;;;;5071681;28;20208;-62
2023/06/26 07:13:29;;;;;;;6.65;5.07;;;48.40;33.00;;;;;;5072370;28;20204;-62
2023/06/26 07:15:56;;;;;;;4.80;4.32;;;48.80;32.80;;;;;;5071246;28;20255;-62
2023/06/26 07:18:23;;;;;;;7.18;4.75;;;49.10;32.20;;;;;;5071365;28;20204;-62
2023/06/26 07:20:49;;;;;;;4.63;4.07;;;49.40;31.90;;;;;;5071119;28;20212;-62
2023/06/26 07:23:16;;;;;;;6.28;4.60;;;50.10;31.20;;;;;;5067168;28;21226;-66
2023/06/26 07:25:44;;;;;;;4.65;4.25;;;50.70;31.00;;;;;;5071133;28;20208;-66
2023/06/26 07:28:11;;;;;;;4.72;4.32;;;50.80;30.10;;;;;;5070639;28;20224;-60
2023/06/26 07:30:39;;;;;;;6.50;4.15;;;50.70;30.10;;;;;;5070747;28;20231;-61
2023/06/26 07:33:05;;;;;;;8.15;4.40;;;50.40;30.60;;;;;;5070554;28;20258;-61
2023/06/26 07:35:32;;;;;;;4.20;3.80;;;50.10;30.50;;;;;;5070008;28;20242;-65
2023/06/26 07:37:59;;;;;;;4.90;4.28;;;49.40;30.00;;;;;;5070954;28;20572;-65
2023/06/26 07:40:26;;;;;;;4.78;4.28;;;48.30;31.10;;;;;;5071874;28;20214;-65
2023/06/26 07:42:54;;;;;;;4.90;4.43;;;47.40;32.00;;;;;;5071106;28;20224;-64
2023/06/26 07:45:21;;;;;;;9.65;4.40;;;46.80;32.60;;;;;;5071848;28;20212;-66
2023/06/26 07:47:48;;;;;;;4.50;3.85;;;47.70;31.90;;;;;;5070217;28;20305;-62
2023/06/26 07:50:19;;;;;;;5.43;4.30;;;48.90;30.10;;;;;;5070188;28;20208;-61
2023/06/26 07:52:46;;;;;;;6.07;4.00;;;49.20;30.40;;;;;;5070457;28;20231;-62
2023/06/26 07:55:12;;;;;;;4.63;3.65;;;49.80;30.00;;;;;;5071080;28;20208;-69
2023/06/26 07:57:39;;;;;;;4.40;3.90;;;49.60;30.00;;;;;;5070539;28;20208;-65
2023/06/26 08:00:08;;;;;;;4.85;3.58;;;49.60;30.10;;;;;;5070405;28;20221;-63
2023/06/26 08:02:35;;;;;;;3.60;3.30;;;49.70;29.80;;;;;;5071183;28;20739;-61
2023/06/26 08:05:02;;;;;;;3.75;3.45;;;49.60;29.90;;;;;;5070715;28;20216;-64
2023/06/26 08:07:28;;;;;;;4.25;3.70;;;49.30;29.80;;;;;;5069871;28;20232;-62
2023/06/26 08:09:55;;;;;;;4.88;3.72;;;49.20;30.00;;;;;;5062330;28;20204;-60
2023/06/26 08:12:22;;;;;;;4.43;4.03;;;49.30;29.80;;;;;;5069802;28;20235;-62
2023/06/26 08:14:48;;;;;;;6.60;4.15;;;49.50;29.60;;;;;;5070652;28;20208;-67
2023/06/26 08:17:17;;;;;;;4.53;4.10;;;48.30;30.70;;;;;;5069868;28;20236;-61
2023/06/26 08:19:43;;;;;;;4.78;4.28;;;47.40;31.20;;;;;;5070255;28;20312;-61
2023/06/26 08:22:10;;;;;;;4.78;4.03;;;46.40;32.30;;;;;;5068684;28;20228;-63
2023/06/26 08:24:37;;;;;;;5.53;4.18;;;46.20;32.30;;;;;;5069630;28;20687;-62
2023/06/26 08:27:04;;;;;;;4.78;3.92;;;46.40;32.40;;;;;;5069002;28;20643;-63
2023/06/26 08:29:31;;;;;;;5.40;3.72;;;46.90;32.00;;;;;;5070327;28;20290;-62
2023/06/26 08:31:57;;;;;;;4.72;3.85;;;47.20;31.90;;;;;;5069853;28;20297;-64
2023/06/26 08:34:26;;;;;;;4.05;3.60;;;47.00;31.90;;;;;;5070423;28;20208;-64
2023/06/26 08:36:52;;;;;;;4.55;3.95;;;46.70;32.20;;;;;;5069801;28;20262;-61
2023/06/26 08:39:19;;;;;;;5.43;3.90;;;46.40;32.40;;;;;;5070207;28;20303;-62
2023/06/26 08:41:46;;;;;;;5.65;4.18;;;46.40;32.40;;;;;;5070301;28;20247;-62
2023/06/26 08:44:13;;;;;;;4.72;4.13;;;46.60;32.40;;;;;;5068714;28;20672;-61
2023/06/26 08:46:40;;;;;;;7.00;4.07;;;46.70;32.30;;;;;;5071164;28;20356;-63
2023/06/26 08:49:18;;;;;;;4.72;4.13;;;46.50;32.50;;;;;;5073611;28;20228;-63
2023/06/26 08:51:52;;;;;;;6.50;4.65;;;45.30;33.40;;;;;;5071694;28;20247;-64
2023/06/26 08:54:28;;;;;;;4.45;3.97;;;44.40;34.60;;;;;;5072557;28;20660;-62
2023/06/26 08:56:56;;;;;;;4.47;4.07;;;43.30;35.40;;;;;;5073527;28;20204;-63
2023/06/26 08:59:23;;;;;;;5.93;4.43;;;41.50;37.40;;;;;;5073372;28;20637;-60
2023/06/26 09:01:51;;;;;;;7.70;4.18;;;40.20;38.60;;;;;;5073444;28;20233;-62
2023/06/26 09:04:18;;;;;;;4.85;4.18;;;38.90;40.10;;;;;;5073633;28;20222;-63
2023/06/26 09:06:46;;;;;;;5.50;4.28;;;37.70;41.70;;;;;;5073028;28;20209;-61
2023/06/26 09:09:13;;;;;;;4.72;4.28;;;36.50;43.20;;;;;;5070251;28;20236;-61
2023/06/26 09:11:40;;;;;;;5.68;4.60;;;35.50;44.60;;;;;;5072861;28;20248;-62
2023/06/26 09:14:09;;;;;;;5.03;4.35;;;34.80;46.10;;;;;;5072582;28;20292;-65
2023/06/26 09:16:41;;;;;;;5.38;4.20;;;34.30;46.50;;;;;;5072502;28;20208;-64
2023/06/26 09:19:11;;;;;;;6.88;4.30;;;33.80;47.10;;;;;;5073729;28;20296;-62
2023/06/26 09:21:39;;;;;;;6.63;4.30;;;33.30;48.40;;;;;;5073211;28;20232;-69
2023/06/26 09:24:07;;;;;;;6.10;4.60;;;33.00;49.00;;;;;;5072646;28;20209;-65
2023/06/26 09:26:35;;;;;;;6.55;4.50;;;32.80;49.80;;;;;;5071194;28;20209;-64
2023/06/26 09:29:01;;;;;;;7.00;4.63;;;32.70;49.80;;;;;;5072775;28;20228;-62
2023/06/26 09:31:28;;;;;;;7.90;4.60;;;32.70;50.10;;;;;;5072440;28;20601;-63
2023/06/26 09:33:59;;;;;;;8.70;4.43;;;32.60;50.90;;;;;;5071325;28;20205;-64
2023/06/26 09:36:28;;;;;;;6.95;4.50;;;32.40;51.10;;;;;;5071104;28;20219;-62
2023/06/26 09:38:55;;;;;;;6.90;4.55;;;32.30;51.30;;;;;;5071608;28;20201;-62
2023/06/26 09:41:23;;;;;;;5.70;4.43;;;32.30;51.90;;;;;;5071609;28;20703;-62
2023/06/26 09:43:51;;;;;;;5.97;4.32;;;32.40;51.90;;;;;;5072647;28;20205;-66
2023/06/26 09:46:18;;;;;;;7.30;4.38;;;32.50;51.50;;;;;;5073858;28;20207;-63
2023/06/26 09:48:45;;;;;;;6.75;4.70;;;32.40;51.80;;;;;;5075089;28;20228;-64
2023/06/26 09:51:12;;;;;;;6.30;4.13;;;32.40;51.90;;;;;;5074332;28;20553;-62
2023/06/26 09:53:38;;;;;;;4.75;4.25;;;32.40;52.00;;;;;;5074311;28;20216;-60
2023/06/26 09:56:08;;;;;;;4.68;4.15;;;32.50;52.00;;;;;;5074275;28;20629;-68
2023/06/26 09:58:37;;;;;;;7.93;4.30;;;32.70;51.60;;;;;;5070392;28;20212;-64
2023/06/26 10:01:04;;;;;;;5.57;4.15;;;32.80;51.70;;;;;;5072702;28;20213;-64
2023/06/26 10:03:31;;;;;;;4.60;3.90;;;33.00;51.70;;;;;;5074213;28;20216;-62
2023/06/26 10:05:58;;;;;;;8.93;4.20;;;33.30;50.90;;;;;;5072097;28;20208;-64
2023/06/26 10:08:25;;;;;;;5.13;4.10;;;33.30;50.40;;;;;;5070516;28;20225;-64
2023/06/26 10:10:53;;;;;;;4.10;3.70;;;33.30;50.30;;;;;;5070761;28;20243;-63
2023/06/26 10:13:22;;;;;;;5.88;4.30;;;33.30;50.50;;;;;;5071716;28;20254;-64
2023/06/26 10:15:51;;;;;;;8.90;4.30;;;33.20;50.60;;;;;;5071458;28;20258;-64
2023/06/26 10:18:19;;;;;;;5.03;3.80;;;33.20;51.10;;;;;;5071707;28;20205;-64
2023/06/26 10:20:49;;;;;;;7.55;3.80;;;33.10;50.50;;;;;;5070522;28;20209;-63
2023/06/26 10:23:16;;;;;;;5.72;4.43;;;33.00;50.40;;;;;;5071667;28;20212;-64
2023/06/26 10:25:47;;;;;;;5.25;3.72;;;32.90;51.10;;;;;;5069773;28;20678;-62
2023/06/26 10:28:15;;;;;;;6.93;4.32;;;33.00;51.80;;;;;;5071628;28;20224;-67
2023/06/26 10:30:44;;;;;;;5.88;3.92;;;33.10;51.90;;;;;;5071740;28;20758;-63
2023/06/26 10:33:13;;;;;;;4.45;4.05;;;33.20;51.90;;;;;;5071970;28;20290;-62
2023/06/26 10:35:44;;;;;;;4.70;4.20;;;33.30;51.50;;;;;;5071301;28;20672;-66
2023/06/26 10:38:11;;;;;;;5.65;4.25;;;33.20;51.30;;;;;;5071471;28;20210;-63
2023/06/26 10:40:42;;;;;;;6.75;4.00;;;33.20;51.90;;;;;;5071552;28;20201;-61
2023/06/26 10:43:11;;;;;;;7.15;4.28;;;33.50;52.10;;;;;;5071478;28;20704;-61
2023/06/26 10:45:38;;;;;;;6.55;4.47;;;33.70;51.90;;;;;;5075486;28;20208;-61
2023/06/26 10:48:05;;;;;;;11.27;4.05;;;33.80;51.70;;;;;;5075957;28;20221;-61
2023/06/26 10:50:35;;;;;;;9.70;4.53;;;33.90;51.60;;;;;;5075357;28;20211;-62
2023/06/26 10:53:19;;;;;;;5.15;3.90;;;33.70;51.50;;;;;;5073831;28;20233;-69
2023/06/26 10:55:50;;;;;;;4.30;3.78;;;33.50;51.60;;;;;;5071990;28;20204;-62
2023/06/26 10:58:31;;;;;;;9.25;4.35;;;33.30;52.00;;;;;;5072248;28;20201;-62
2023/06/26 11:01:22;;;;;;;7.85;4.80;;;33.10;52.40;;;;;;5073320;28;20258;-62
2023/06/26 11:03:50;;;;;;;6.07;4.05;;;32.70;52.90;;;;;;5073080;28;20262;-63
2023/06/26 11:06:21;;;;;;;5.80;4.35;;;32.50;53.80;;;;;;5073531;28;20220;-61
2023/06/26 11:08:49;;;;;;;6.85;5.13;;;32.50;53.70;;;;;;5074258;28;20221;-62
2023/06/26 11:11:17;;;;;;;7.20;4.45;;;32.50;53.70;;;;;;5073076;28;20590;-61
2023/06/26 11:13:46;;;;;;;9.07;5.10;;;32.40;54.40;;;;;;5072918;28;20213;-60
2023/06/26 11:16:14;;;;;;;5.78;4.60;;;32.40;55.40;;;;;;5073274;28;20262;-61
2023/06/26 11:18:41;;;;;;;9.32;4.80;;;32.30;55.80;;;;;;5072630;28;20201;-60
2023/06/26 11:21:09;;;;;;;9.52;5.13;;;32.30;55.70;;;;;;5071533;28;20205;-61
2023/06/26 11:23:38;;;;;;;7.68;4.35;;;32.40;55.90;;;;;;5070962;28;20582;-61
2023/06/26 11:26:15;;;;;;;6.90;4.85;;;32.60;55.70;;;;;;5070719;28;20342;-61
2023/06/26 11:28:47;;;;;;;5.38;4.65;;;32.70;55.50;;;;;;5070755;28;20229;-62
2023/06/26 11:31:25;;;;;;;9.27;4.88;;;32.90;55.50;;;;;;5070628;28;20656;-66
2023/06/26 11:33:52;;;;;;;8.18;4.65;;;33.10;55.30;;;;;;5070844;28;20537;-62
2023/06/26 11:36:18;;;;;;;9.60;4.70;;;33.20;54.90;;;;;;5070661;28;20254;-63
2023/06/26 11:38:46;;;;;;;8.95;4.82;;;33.30;55.00;;;;;;5070997;28;20582;-61
2023/06/26 11:41:18;;;;;;;7.07;4.88;;;33.30;56.00;;;;;;5070819;28;20232;-66
2023/06/26 11:43:44;;;;;;;10.43;8.40;;;33.40;56.30;;;;;;5064601;28;21650;-65
2023/06/26 11:46:11;;;;;;;7.40;4.90;;;33.60;56.30;;;;;;5070447;28;20212;-63
2023/06/26 11:48:38;;;;;;;9.07;5.95;;;33.60;56.60;;;;;;5068545;28;20533;-65
2023/06/26 11:51:06;;;;;;;6.55;5.15;;;33.60;56.70;;;;;;5067738;28;20258;-68
2023/06/26 11:53:40;;;;;;;9.98;5.00;;;33.90;56.50;;;;;;5070615;28;20291;-63
2023/06/26 11:56:10;;;;;;;7.95;5.32;;;33.90;55.80;;;;;;5069684;28;20582;-62
2023/06/26 11:58:37;;;;;;;11.02;4.97;;;34.00;55.30;;;;;;5070241;28;20613;-61
2023/06/26 12:01:04;;;;;;;8.38;4.68;;;33.80;55.60;;;;;;5070671;28;20213;-62
2023/06/26 12:03:33;;;;;;;7.28;4.90;;;33.50;56.50;;;;;;5070522;28;20676;-61
2023/06/26 12:06:01;;;;;;;5.45;4.22;;;33.30;57.50;;;;;;5070072;28;20208;-63
2023/06/26 12:08:27;;;;;;;10.75;4.90;;;33.10;58.50;;;;;;5070804;28;20229;-63
2023/06/26 12:10:54;;;;;;;12.13;5.22;;;33.10;58.40;;;;;;5070402;28;20239;-62
2023/06/26 12:13:22;;;;;;;5.68;4.85;;;33.20;58.20;;;;;;5070313;28;20296;-62
2023/06/26 12:15:50;;;;;;;6.85;4.82;;;33.10;57.70;;;;;;5070066;28;20749;-62
2023/06/26 12:18:16;;;;;;;6.43;4.97;;;33.10;58.10;;;;;;5070431;28;20209;-62
2023/06/26 12:20:43;;;;;;;15.48;5.43;;;33.10;58.90;;;;;;5070616;28;20200;-62
2023/06/26 12:23:13;;;;;;;8.82;5.50;;;32.90;59.10;;;;;;5074040;28;20225;-62
2023/06/26 12:25:40;;;;;;;8.32;4.45;;;32.80;60.10;;;;;;5074297;28;20208;-62
2023/06/26 12:28:16;;;;;;;10.13;4.72;;;32.80;60.50;;;;;;5073804;28;20209;-62
2023/06/26 12:30:48;;;;;;;8.77;4.40;;;33.00;61.00;;;;;;5073998;28;20208;-61
2023/06/26 12:33:15;;;;;;;7.85;4.35;;;33.30;58.80;;;;;;5074011;28;20266;-63
2023/06/26 12:35:42;;;;;;;8.05;5.22;;;33.30;58.70;;;;;;5073635;28;20672;-63
2023/06/26 12:38:10;;;;;;;7.25;4.70;;;33.30;59.00;;;;;;5074040;28;20205;-62
2023/06/26 12:40:45;;;;;;;8.27;4.53;;;33.20;59.40;;;;;;5074430;28;20399;-62
2023/06/26 12:43:12;;;;;;;10.13;4.80;;;33.20;59.90;;;;;;5073716;28;20231;-62
2023/06/26 12:45:40;;;;;;;7.32;4.30;;;33.30;59.30;;;;;;5073915;28;20201;-62
2023/06/26 12:48:13;;;;;;;5.95;4.90;;;33.60;59.20;;;;;;5073550;28;20221;-62